sensor_id;sensor_type;location;lat;lon;timestamp;temperature;humidity
65462;DHT22;53236;43.666;18.444;2023-10-09T00:02:09;12.80;99.90
65462;DHT22;53236;43.666;18.444;2023-10-09T00:04:38;12.80;99.90
65462;DHT22;53236;43.666;18.444;2023-10-09T00:07:07;12.80;99.90
65462;DHT22;53236;43.666;18.444;2023-10-09T00:09:34;12.80;99.90
65462;DHT22;53236;43.666;18.444;2023-10-09T00:12:16;12.80;99.90
65462;DHT22;53236;43.666;18.444;2023-10-09T00:14:42;12.80;99.90
65462;DHT22;53236;43.666;18.444;2023-10-09T00:17:15;12.80;99.90
65462;DHT22;53236;43.666;18.444;2023-10-09T00:19:40;12.80;99.90
65462;DHT22;53236;43.666;18.444;2023-10-09T00:22:09;12.80;99.90
65462;DHT22;53236;43.666;18.444;2023-10-09T00:24:55;12.70;99.90
65462;DHT22;53236;43.666;18.444;2023-10-09T00:27:43;12.70;99.90
65462;DHT22;53236;43.666;18.444;2023-10-09T00:30:11;12.70;99.90
65462;DHT22;53236;43.666;18.444;2023-10-09T00:32:44;12.70;99.90
65462;DHT22;53236;43.666;18.444;2023-10-09T00:35:27;12.70;99.90
65462;DHT22;53236;43.666;18.444;2023-10-09T00:38:06;12.70;99.90
65462;DHT22;53236;43.666;18.444;2023-10-09T00:40:53;12.70;99.90
65462;DHT22;53236;43.666;18.444;2023-10-09T00:43:28;12.60;99.90
65462;DHT22;53236;43.666;18.444;2023-10-09T00:45:55;12.60;99.90
65462;DHT22;53236;43.666;18.444;2023-10-09T00:48:22;12.60;99.90
65462;DHT22;53236;43.666;18.444;2023-10-09T00:50:57;12.60;99.90
65462;DHT22;53236;43.666;18.444;2023-10-09T00:53:27;12.50;99.90
65462;DHT22;53236;43.666;18.444;2023-10-09T00:56:01;12.60;99.90
65462;DHT22;53236;43.666;18.444;2023-10-09T00:58:48;12.60;99.90
65462;DHT22;53236;43.666;18.444;2023-10-09T01:01:24;12.50;99.90
65462;DHT22;53236;43.666;18.444;2023-10-09T01:03:53;12.50;99.90
65462;DHT22;53236;43.666;18.444;2023-10-09T01:06:19;12.50;99.90
65462;DHT22;53236;43.666;18.444;2023-10-09T01:08:58;12.50;99.90
65462;DHT22;53236;43.666;18.444;2023-10-09T01:11:36;12.50;99.90
65462;DHT22;53236;43.666;18.444;2023-10-09T01:14:29;12.50;99.90
65462;DHT22;53236;43.666;18.444;2023-10-09T01:16:57;12.40;99.90
65462;DHT22;53236;43.666;18.444;2023-10-09T01:19:23;12.40;99.90
65462;DHT22;53236;43.666;18.444;2023-10-09T01:21:56;12.40;99.90
65462;DHT22;53236;43.666;18.444;2023-10-09T01:24:30;12.40;99.90
65462;DHT22;53236;43.666;18.444;2023-10-09T01:27:01;12.40;99.90
65462;DHT22;53236;43.666;18.444;2023-10-09T01:29:30;12.30;99.90
65462;DHT22;53236;43.666;18.444;2023-10-09T01:31:56;12.30;99.90
65462;DHT22;53236;43.666;18.444;2023-10-09T01:34:33;12.20;99.90
65462;DHT22;53236;43.666;18.444;2023-10-09T01:37:15;12.20;99.90
65462;DHT22;53236;43.666;18.444;2023-10-09T01:39:53;12.20;99.90
65462;DHT22;53236;43.666;18.444;2023-10-09T01:42:45;12.10;99.90
65462;DHT22;53236;43.666;18.444;2023-10-09T01:45:12;12.00;99.90
65462;DHT22;53236;43.666;18.444;2023-10-09T01:47:41;11.90;99.90
65462;DHT22;53236;43.666;18.444;2023-10-09T01:50:11;11.90;99.90
65462;DHT22;53236;43.666;18.444;2023-10-09T01:52:43;11.80;99.90
65462;DHT22;53236;43.666;18.444;2023-10-09T01:55:09;11.70;99.90
65462;DHT22;53236;43.666;18.444;2023-10-09T01:57:55;11.70;99.90
65462;DHT22;53236;43.666;18.444;2023-10-09T02:00:23;11.60;99.90
65462;DHT22;53236;43.666;18.444;2023-10-09T02:02:54;11.50;99.90
65462;DHT22;53236;43.666;18.444;2023-10-09T02:05:20;11.50;99.90
65462;DHT22;53236;43.666;18.444;2023-10-09T02:07:46;11.40;99.90
65462;DHT22;53236;43.666;18.444;2023-10-09T02:10:24;11.40;99.90
65462;DHT22;53236;43.666;18.444;2023-10-09T02:12:50;11.40;99.90
65462;DHT22;53236;43.666;18.444;2023-10-09T02:15:29;11.30;99.90
65462;DHT22;53236;43.666;18.444;2023-10-09T02:18:14;11.20;99.90
65462;DHT22;53236;43.666;18.444;2023-10-09T02:23:25;11.20;99.90
65462;DHT22;53236;43.666;18.444;2023-10-09T02:25:57;11.10;99.90
65462;DHT22;53236;43.666;18.444;2023-10-09T02:28:23;11.00;99.90
65462;DHT22;53236;43.666;18.444;2023-10-09T02:30:49;11.00;99.90
65462;DHT22;53236;43.666;18.444;2023-10-09T02:33:16;10.90;99.90
65462;DHT22;53236;43.666;18.444;2023-10-09T02:35:54;10.80;99.90
65462;DHT22;53236;43.666;18.444;2023-10-09T02:38:20;10.80;99.90
65462;DHT22;53236;43.666;18.444;2023-10-09T02:40:52;10.70;99.90
65462;DHT22;53236;43.666;18.444;2023-10-09T02:43:46;10.70;99.90
65462;DHT22;53236;43.666;18.444;2023-10-09T02:46:14;10.60;99.90
65462;DHT22;53236;43.666;18.444;2023-10-09T02:48:44;10.60;99.90
65462;DHT22;53236;43.666;18.444;2023-10-09T02:51:19;10.50;99.90
65462;DHT22;53236;43.666;18.444;2023-10-09T02:53:55;10.40;99.90
65462;DHT22;53236;43.666;18.444;2023-10-09T02:56:23;10.30;99.90
65462;DHT22;53236;43.666;18.444;2023-10-09T02:59:18;10.30;99.90
65462;DHT22;53236;43.666;18.444;2023-10-09T03:01:47;10.20;99.90
65462;DHT22;53236;43.666;18.444;2023-10-09T03:04:14;10.10;99.90
65462;DHT22;53236;43.666;18.444;2023-10-09T03:06:41;10.10;99.90
65462;DHT22;53236;43.666;18.444;2023-10-09T03:09:25;10.00;99.90
65462;DHT22;53236;43.666;18.444;2023-10-09T03:12:02;9.90;99.90
65462;DHT22;53236;43.666;18.444;2023-10-09T03:14:32;9.90;99.90
65462;DHT22;53236;43.666;18.444;2023-10-09T03:17:01;9.90;99.90
65462;DHT22;53236;43.666;18.444;2023-10-09T03:19:31;9.80;99.90
65462;DHT22;53236;43.666;18.444;2023-10-09T03:22:03;9.80;99.90
65462;DHT22;53236;43.666;18.444;2023-10-09T03:24:29;9.70;99.90
65462;DHT22;53236;43.666;18.444;2023-10-09T03:26:56;9.70;99.90
65462;DHT22;53236;43.666;18.444;2023-10-09T03:29:23;9.60;99.90
65462;DHT22;53236;43.666;18.444;2023-10-09T03:31:49;9.60;99.90
65462;DHT22;53236;43.666;18.444;2023-10-09T03:34:17;9.60;99.90
65462;DHT22;53236;43.666;18.444;2023-10-09T03:36:45;9.50;99.90
65462;DHT22;53236;43.666;18.444;2023-10-09T03:39:10;9.50;99.90
65462;DHT22;53236;43.666;18.444;2023-10-09T03:41:56;9.50;99.90
65462;DHT22;53236;43.666;18.444;2023-10-09T03:44:24;9.40;99.90
65462;DHT22;53236;43.666;18.444;2023-10-09T03:46:53;9.40;99.90
65462;DHT22;53236;43.666;18.444;2023-10-09T03:49:19;9.40;99.90
65462;DHT22;53236;43.666;18.444;2023-10-09T03:51:52;9.40;99.90
65462;DHT22;53236;43.666;18.444;2023-10-09T03:54:18;9.30;99.90
65462;DHT22;53236;43.666;18.444;2023-10-09T03:56:48;9.30;99.90
65462;DHT22;53236;43.666;18.444;2023-10-09T03:59:21;9.30;99.90
65462;DHT22;53236;43.666;18.444;2023-10-09T04:01:47;9.30;99.90
65462;DHT22;53236;43.666;18.444;2023-10-09T04:04:17;9.30;99.90
65462;DHT22;53236;43.666;18.444;2023-10-09T04:06:42;9.30;99.90
65462;DHT22;53236;43.666;18.444;2023-10-09T04:09:10;9.30;99.90
65462;DHT22;53236;43.666;18.444;2023-10-09T04:11:52;9.20;99.90
65462;DHT22;53236;43.666;18.444;2023-10-09T04:14:40;9.20;99.90
65462;DHT22;53236;43.666;18.444;2023-10-09T04:17:14;9.30;99.90
65462;DHT22;53236;43.666;18.444;2023-10-09T04:19:49;9.20;99.90
65462;DHT22;53236;43.666;18.444;2023-10-09T04:22:38;9.20;99.90
65462;DHT22;53236;43.666;18.444;2023-10-09T04:25:22;9.10;99.90
65462;DHT22;53236;43.666;18.444;2023-10-09T04:28:00;9.10;99.90
65462;DHT22;53236;43.666;18.444;2023-10-09T04:30:38;9.10;99.90
65462;DHT22;53236;43.666;18.444;2023-10-09T04:33:15;9.00;99.90
65462;DHT22;53236;43.666;18.444;2023-10-09T04:36:10;9.00;99.90
65462;DHT22;53236;43.666;18.444;2023-10-09T04:38:45;9.00;99.90
65462;DHT22;53236;43.666;18.444;2023-10-09T04:41:29;9.10;99.90
65462;DHT22;53236;43.666;18.444;2023-10-09T04:44:00;9.10;99.90
65462;DHT22;53236;43.666;18.444;2023-10-09T04:46:45;9.10;99.90
65462;DHT22;53236;43.666;18.444;2023-10-09T04:49:31;9.00;99.90
65462;DHT22;53236;43.666;18.444;2023-10-09T04:52:11;8.90;99.90
65462;DHT22;53236;43.666;18.444;2023-10-09T04:54:58;8.90;99.90
65462;DHT22;53236;43.666;18.444;2023-10-09T05:00:24;8.80;99.90
65462;DHT22;53236;43.666;18.444;2023-10-09T05:02:57;8.80;99.90
65462;DHT22;53236;43.666;18.444;2023-10-09T05:05:25;8.90;99.90
65462;DHT22;53236;43.666;18.444;2023-10-09T05:08:14;8.90;99.90
65462;DHT22;53236;43.666;18.444;2023-10-09T05:10:54;8.90;99.90
65462;DHT22;53236;43.666;18.444;2023-10-09T05:13:41;9.00;99.90
65462;DHT22;53236;43.666;18.444;2023-10-09T05:16:11;9.10;99.90
65462;DHT22;53236;43.666;18.444;2023-10-09T05:18:58;9.10;99.90
65462;DHT22;53236;43.666;18.444;2023-10-09T05:21:36;9.10;99.90
65462;DHT22;53236;43.666;18.444;2023-10-09T05:24:11;9.20;99.90
65462;DHT22;53236;43.666;18.444;2023-10-09T05:26:50;9.30;99.90
65462;DHT22;53236;43.666;18.444;2023-10-09T05:29:18;9.40;99.90
65462;DHT22;53236;43.666;18.444;2023-10-09T05:32:00;9.40;99.90
65462;DHT22;53236;43.666;18.444;2023-10-09T05:34:41;9.30;99.90
65462;DHT22;53236;43.666;18.444;2023-10-09T05:37:26;9.40;99.90
65462;DHT22;53236;43.666;18.444;2023-10-09T05:39:59;9.30;99.90
65462;DHT22;53236;43.666;18.444;2023-10-09T05:42:26;9.50;99.90
65462;DHT22;53236;43.666;18.444;2023-10-09T05:45:15;9.70;99.90
65462;DHT22;53236;43.666;18.444;2023-10-09T05:47:47;9.90;99.90
65462;DHT22;53236;43.666;18.444;2023-10-09T05:50:31;10.00;99.90
65462;DHT22;53236;43.666;18.444;2023-10-09T05:53:01;10.00;99.90
65462;DHT22;53236;43.666;18.444;2023-10-09T06:11:23;10.90;99.90
65462;DHT22;53236;43.666;18.444;2023-10-09T06:14:16;14.50;99.90
65462;DHT22;53236;43.666;18.444;2023-10-09T06:17:11;15.30;99.90
65462;DHT22;53236;43.666;18.444;2023-10-09T06:19:37;16.40;99.90
65462;DHT22;53236;43.666;18.444;2023-10-09T06:22:10;17.10;96.00
65462;DHT22;53236;43.666;18.444;2023-10-09T06:24:54;18.20;89.20
65462;DHT22;53236;43.666;18.444;2023-10-09T06:27:21;18.90;83.70
65462;DHT22;53236;43.666;18.444;2023-10-09T06:30:09;19.90;79.30
65462;DHT22;53236;43.666;18.444;2023-10-09T06:32:50;22.10;71.10
65462;DHT22;53236;43.666;18.444;2023-10-09T06:35:28;24.10;62.10
65462;DHT22;53236;43.666;18.444;2023-10-09T06:37:58;25.50;60.60
65462;DHT22;53236;43.666;18.444;2023-10-09T06:43:02;28.90;52.50
65462;DHT22;53236;43.666;18.444;2023-10-09T06:45:36;30.30;50.40
65462;DHT22;53236;43.666;18.444;2023-10-09T06:48:14;30.50;47.80
65462;DHT22;53236;43.666;18.444;2023-10-09T06:51:17;31.30;47.10
65462;DHT22;53236;43.666;18.444;2023-10-09T06:54:06;32.00;45.40
65462;DHT22;53236;43.666;18.444;2023-10-09T06:56:40;32.20;45.30
65462;DHT22;53236;43.666;18.444;2023-10-09T06:59:18;32.20;44.70
65462;DHT22;53236;43.666;18.444;2023-10-09T07:01:50;33.30;44.80
65462;DHT22;53236;43.666;18.444;2023-10-09T07:04:36;33.80;42.80
65462;DHT22;53236;43.666;18.444;2023-10-09T07:07:02;34.70;42.00
65462;DHT22;53236;43.666;18.444;2023-10-09T07:09:33;34.90;42.00
65462;DHT22;53236;43.666;18.444;2023-10-09T07:12:10;35.30;41.50
65462;DHT22;53236;43.666;18.444;2023-10-09T07:14:46;35.30;40.30
65462;DHT22;53236;43.666;18.444;2023-10-09T07:17:12;36.30;41.50
65462;DHT22;53236;43.666;18.444;2023-10-09T07:19:56;37.10;40.20
65462;DHT22;53236;43.666;18.444;2023-10-09T07:22:41;38.30;39.70
65462;DHT22;53236;43.666;18.444;2023-10-09T07:25:27;38.70;38.50
65462;DHT22;53236;43.666;18.444;2023-10-09T07:27:58;39.10;38.50
65462;DHT22;53236;43.666;18.444;2023-10-09T07:30:25;40.00;37.80
65462;DHT22;53236;43.666;18.444;2023-10-09T07:33:04;40.00;37.10
65462;DHT22;53236;43.666;18.444;2023-10-09T07:38:14;38.60;38.20
65462;DHT22;53236;43.666;18.444;2023-10-09T07:40:45;37.90;39.10
65462;DHT22;53236;43.666;18.444;2023-10-09T07:43:24;37.30;39.70
65462;DHT22;53236;43.666;18.444;2023-10-09T07:46:18;37.90;39.40
65462;DHT22;53236;43.666;18.444;2023-10-09T07:49:16;39.90;38.20
65462;DHT22;53236;43.666;18.444;2023-10-09T07:51:50;39.70;37.50
65462;DHT22;53236;43.666;18.444;2023-10-09T07:54:18;38.80;38.80
65462;DHT22;53236;43.666;18.444;2023-10-09T07:56:58;40.10;37.50
65462;DHT22;53236;43.666;18.444;2023-10-09T07:59:34;41.10;37.60
65462;DHT22;53236;43.666;18.444;2023-10-09T08:02:06;42.60;36.70
65462;DHT22;53236;43.666;18.444;2023-10-09T08:04:39;43.20;35.50
65462;DHT22;53236;43.666;18.444;2023-10-09T08:07:15;43.30;35.20
65462;DHT22;53236;43.666;18.444;2023-10-09T08:10:03;44.10;34.40
65462;DHT22;53236;43.666;18.444;2023-10-09T08:12:44;45.00;34.40
65462;DHT22;53236;43.666;18.444;2023-10-09T08:15:17;46.00;33.60
65462;DHT22;53236;43.666;18.444;2023-10-09T08:17:57;46.10;33.30
65462;DHT22;53236;43.666;18.444;2023-10-09T08:20:44;46.30;33.10
65462;DHT22;53236;43.666;18.444;2023-10-09T08:23:22;46.60;33.20
65462;DHT22;53236;43.666;18.444;2023-10-09T08:26:16;47.10;32.40
65462;DHT22;53236;43.666;18.444;2023-10-09T08:28:55;46.80;32.20
65462;DHT22;53236;43.666;18.444;2023-10-09T08:31:40;46.00;33.00
65462;DHT22;53236;43.666;18.444;2023-10-09T08:34:15;46.70;32.90
65462;DHT22;53236;43.666;18.444;2023-10-09T08:36:51;45.40;33.20
65462;DHT22;53236;43.666;18.444;2023-10-09T08:39:21;45.50;33.20
65462;DHT22;53236;43.666;18.444;2023-10-09T08:41:55;45.40;33.10
65462;DHT22;53236;43.666;18.444;2023-10-09T08:44:25;45.50;32.50
65462;DHT22;53236;43.666;18.444;2023-10-09T08:46:55;45.40;33.50
65462;DHT22;53236;43.666;18.444;2023-10-09T08:49:25;45.70;32.60
65462;DHT22;53236;43.666;18.444;2023-10-09T08:51:51;46.30;32.70
65462;DHT22;53236;43.666;18.444;2023-10-09T08:54:18;46.20;32.00
65462;DHT22;53236;43.666;18.444;2023-10-09T08:56:47;45.50;33.30
65462;DHT22;53236;43.666;18.444;2023-10-09T08:59:17;46.00;33.20
65462;DHT22;53236;43.666;18.444;2023-10-09T09:01:47;45.50;33.20
65462;DHT22;53236;43.666;18.444;2023-10-09T09:04:37;44.50;33.30
65462;DHT22;53236;43.666;18.444;2023-10-09T09:07:05;44.10;33.30
65462;DHT22;53236;43.666;18.444;2023-10-09T09:09:31;45.30;33.10
65462;DHT22;53236;43.666;18.444;2023-10-09T09:11:59;46.10;32.80
65462;DHT22;53236;43.666;18.444;2023-10-09T09:14:36;47.40;32.80
65462;DHT22;53236;43.666;18.444;2023-10-09T09:17:03;47.20;32.30
65462;DHT22;53236;43.666;18.444;2023-10-09T09:19:33;47.50;31.70
65462;DHT22;53236;43.666;18.444;2023-10-09T09:22:03;47.50;32.60
65462;DHT22;53236;43.666;18.444;2023-10-09T09:24:39;47.70;31.30
65462;DHT22;53236;43.666;18.444;2023-10-09T09:27:05;48.10;31.60
65462;DHT22;53236;43.666;18.444;2023-10-09T09:29:44;48.30;31.60
65462;DHT22;53236;43.666;18.444;2023-10-09T09:32:30;47.80;30.30
65462;DHT22;53236;43.666;18.444;2023-10-09T09:35:01;48.00;30.60
65462;DHT22;53236;43.666;18.444;2023-10-09T09:37:30;47.70;30.20
65462;DHT22;53236;43.666;18.444;2023-10-09T09:40:17;47.80;29.90
65462;DHT22;53236;43.666;18.444;2023-10-09T09:42:59;47.40;29.90
65462;DHT22;53236;43.666;18.444;2023-10-09T09:45:35;46.70;30.20
65462;DHT22;53236;43.666;18.444;2023-10-09T09:48:02;44.90;30.90
65462;DHT22;53236;43.666;18.444;2023-10-09T09:50:32;44.20;31.90
65462;DHT22;53236;43.666;18.444;2023-10-09T09:52:59;44.10;32.30
65462;DHT22;53236;43.666;18.444;2023-10-09T09:55:33;45.30;32.40
65462;DHT22;53236;43.666;18.444;2023-10-09T09:57:59;44.90;30.60
65462;DHT22;53236;43.666;18.444;2023-10-09T10:00:29;45.50;29.80
65462;DHT22;53236;43.666;18.444;2023-10-09T10:03:30;45.60;30.70
65462;DHT22;53236;43.666;18.444;2023-10-09T10:05:59;43.80;30.60
65462;DHT22;53236;43.666;18.444;2023-10-09T10:08:26;41.50;32.90
65462;DHT22;53236;43.666;18.444;2023-10-09T10:10:59;40.10;34.00
65462;DHT22;53236;43.666;18.444;2023-10-09T10:16:09;37.40;35.20
65462;DHT22;53236;43.666;18.444;2023-10-09T10:18:54;34.80;36.80
65462;DHT22;53236;43.666;18.444;2023-10-09T10:21:33;33.70;38.00
65462;DHT22;53236;43.666;18.444;2023-10-09T10:27:17;31.80;40.50
65462;DHT22;53236;43.666;18.444;2023-10-09T10:35:21;30.80;40.00
65462;DHT22;53236;43.666;18.444;2023-10-09T10:38:01;31.10;41.30
65462;DHT22;53236;43.666;18.444;2023-10-09T10:40:40;30.90;41.30
65462;DHT22;53236;43.666;18.444;2023-10-09T10:43:18;30.60;41.30
65462;DHT22;53236;43.666;18.444;2023-10-09T10:46:14;30.20;41.40
65462;DHT22;53236;43.666;18.444;2023-10-09T10:48:41;29.20;41.60
65462;DHT22;53236;43.666;18.444;2023-10-09T10:51:12;29.60;42.00
65462;DHT22;53236;43.666;18.444;2023-10-09T10:53:50;29.40;41.90
65462;DHT22;53236;43.666;18.444;2023-10-09T10:56:18;29.00;42.30
65462;DHT22;53236;43.666;18.444;2023-10-09T10:58:54;29.00;41.30
65462;DHT22;53236;43.666;18.444;2023-10-09T11:01:35;29.10;43.00
65462;DHT22;53236;43.666;18.444;2023-10-09T11:04:26;28.80;44.00
65462;DHT22;53236;43.666;18.444;2023-10-09T11:06:58;28.40;43.10
65462;DHT22;53236;43.666;18.444;2023-10-09T11:09:50;28.20;43.00
65462;DHT22;53236;43.666;18.444;2023-10-09T11:15:32;28.20;43.50
65462;DHT22;53236;43.666;18.444;2023-10-09T11:18:13;28.10;44.20
65462;DHT22;53236;43.666;18.444;2023-10-09T11:20:52;27.80;43.80
65462;DHT22;53236;43.666;18.444;2023-10-09T11:23:41;27.70;44.30
65462;DHT22;53236;43.666;18.444;2023-10-09T11:26:16;27.80;43.70
65462;DHT22;53236;43.666;18.444;2023-10-09T11:29:15;27.90;44.10
65462;DHT22;53236;43.666;18.444;2023-10-09T11:32:20;28.00;44.00
65462;DHT22;53236;43.666;18.444;2023-10-09T11:35:09;28.50;43.60
65462;DHT22;53236;43.666;18.444;2023-10-09T11:37:35;28.60;43.90
65462;DHT22;53236;43.666;18.444;2023-10-09T11:40:32;28.70;43.30
65462;DHT22;53236;43.666;18.444;2023-10-09T11:43:45;28.90;43.80
65462;DHT22;53236;43.666;18.444;2023-10-09T11:46:21;28.90;44.30
65462;DHT22;53236;43.666;18.444;2023-10-09T11:49:22;29.00;43.60
65462;DHT22;53236;43.666;18.444;2023-10-09T11:52:09;28.60;44.10
65462;DHT22;53236;43.666;18.444;2023-10-09T11:54:38;28.70;43.80
65462;DHT22;53236;43.666;18.444;2023-10-09T11:57:04;28.70;43.10
65462;DHT22;53236;43.666;18.444;2023-10-09T11:59:32;28.40;45.20
65462;DHT22;53236;43.666;18.444;2023-10-09T12:02:07;27.70;44.60
65462;DHT22;53236;43.666;18.444;2023-10-09T12:04:39;27.30;46.30
65462;DHT22;53236;43.666;18.444;2023-10-09T12:07:09;27.30;46.30
65462;DHT22;53236;43.666;18.444;2023-10-09T12:09:37;27.40;46.20
65462;DHT22;53236;43.666;18.444;2023-10-09T12:12:05;27.40;47.00
65462;DHT22;53236;43.666;18.444;2023-10-09T12:14:31;27.40;46.50
65462;DHT22;53236;43.666;18.444;2023-10-09T12:17:04;27.40;47.40
65462;DHT22;53236;43.666;18.444;2023-10-09T12:19:37;27.40;47.50
65462;DHT22;53236;43.666;18.444;2023-10-09T12:22:07;27.30;48.20
65462;DHT22;53236;43.666;18.444;2023-10-09T12:24:36;27.10;47.00
65462;DHT22;53236;43.666;18.444;2023-10-09T12:27:03;27.10;47.50
65462;DHT22;53236;43.666;18.444;2023-10-09T12:42:56;27.10;46.40
65462;DHT22;53236;43.666;18.444;2023-10-09T12:45:26;27.00;48.80
65462;DHT22;53236;43.666;18.444;2023-10-09T12:47:56;27.20;48.20
65462;DHT22;53236;43.666;18.444;2023-10-09T12:50:25;27.20;47.60
65462;DHT22;53236;43.666;18.444;2023-10-09T12:52:57;27.50;47.50
65462;DHT22;53236;43.666;18.444;2023-10-09T12:55:38;27.50;46.30
65462;DHT22;53236;43.666;18.444;2023-10-09T12:58:11;27.30;46.90
65462;DHT22;53236;43.666;18.444;2023-10-09T13:00:41;27.30;47.70
65462;DHT22;53236;43.666;18.444;2023-10-09T13:03:14;27.40;45.90
65462;DHT22;53236;43.666;18.444;2023-10-09T13:05:47;27.60;47.10
65462;DHT22;53236;43.666;18.444;2023-10-09T13:08:25;27.70;47.20
65462;DHT22;53236;43.666;18.444;2023-10-09T13:11:04;28.20;47.60
65462;DHT22;53236;43.666;18.444;2023-10-09T13:13:40;28.30;46.50
65462;DHT22;53236;43.666;18.444;2023-10-09T13:16:11;28.40;45.70
65462;DHT22;53236;43.666;18.444;2023-10-09T13:18:42;28.40;46.40
65462;DHT22;53236;43.666;18.444;2023-10-09T13:21:35;28.20;46.30
65462;DHT22;53236;43.666;18.444;2023-10-09T13:24:06;27.90;46.40
65462;DHT22;53236;43.666;18.444;2023-10-09T13:26:42;27.60;46.80
65462;DHT22;53236;43.666;18.444;2023-10-09T13:29:10;27.30;48.10
65462;DHT22;53236;43.666;18.444;2023-10-09T13:31:37;27.00;46.40
65462;DHT22;53236;43.666;18.444;2023-10-09T13:34:07;26.70;47.90
65462;DHT22;53236;43.666;18.444;2023-10-09T13:36:35;26.60;49.30
65462;DHT22;53236;43.666;18.444;2023-10-09T13:39:04;26.50;50.00
65462;DHT22;53236;43.666;18.444;2023-10-09T13:41:53;26.50;49.70
65462;DHT22;53236;43.666;18.444;2023-10-09T13:44:33;26.40;50.20
65462;DHT22;53236;43.666;18.444;2023-10-09T13:47:00;26.20;49.00
65462;DHT22;53236;43.666;18.444;2023-10-09T13:49:27;26.10;49.10
65462;DHT22;53236;43.666;18.444;2023-10-09T13:51:56;26.10;50.40
65462;DHT22;53236;43.666;18.444;2023-10-09T13:54:23;26.00;50.20
65462;DHT22;53236;43.666;18.444;2023-10-09T13:57:01;25.90;50.80
65462;DHT22;53236;43.666;18.444;2023-10-09T13:59:30;25.70;50.30
65462;DHT22;53236;43.666;18.444;2023-10-09T14:01:56;25.50;50.10
65462;DHT22;53236;43.666;18.444;2023-10-09T14:04:24;25.40;51.00
65462;DHT22;53236;43.666;18.444;2023-10-09T14:06:50;25.20;51.00
65462;DHT22;53236;43.666;18.444;2023-10-09T14:09:23;25.00;51.80
65462;DHT22;53236;43.666;18.444;2023-10-09T14:12:10;24.80;53.80
65462;DHT22;53236;43.666;18.444;2023-10-09T14:14:41;24.80;53.70
65462;DHT22;53236;43.666;18.444;2023-10-09T14:17:17;24.80;53.70
65462;DHT22;53236;43.666;18.444;2023-10-09T14:19:50;24.70;54.40
65462;DHT22;53236;43.666;18.444;2023-10-09T14:22:21;24.50;55.60
65462;DHT22;53236;43.666;18.444;2023-10-09T14:24:50;24.50;54.70
65462;DHT22;53236;43.666;18.444;2023-10-09T14:27:26;24.40;54.00
65462;DHT22;53236;43.666;18.444;2023-10-09T14:29:54;24.30;54.90
65462;DHT22;53236;43.666;18.444;2023-10-09T14:32:25;24.30;54.70
65462;DHT22;53236;43.666;18.444;2023-10-09T14:35:09;24.30;55.10
65462;DHT22;53236;43.666;18.444;2023-10-09T14:37:41;24.10;55.80
65462;DHT22;53236;43.666;18.444;2023-10-09T14:40:07;24.00;57.30
65462;DHT22;53236;43.666;18.444;2023-10-09T14:42:42;23.90;57.50
65462;DHT22;53236;43.666;18.444;2023-10-09T14:45:11;23.80;58.90
65462;DHT22;53236;43.666;18.444;2023-10-09T14:47:41;23.70;61.00
65462;DHT22;53236;43.666;18.444;2023-10-09T14:50:07;23.60;60.80
65462;DHT22;53236;43.666;18.444;2023-10-09T14:52:34;23.50;60.60
65462;DHT22;53236;43.666;18.444;2023-10-09T14:55:07;23.40;59.60
65462;DHT22;53236;43.666;18.444;2023-10-09T14:57:35;23.20;60.50
65462;DHT22;53236;43.666;18.444;2023-10-09T15:00:01;23.10;61.50
65462;DHT22;53236;43.666;18.444;2023-10-09T15:02:33;22.80;62.70
65462;DHT22;53236;43.666;18.444;2023-10-09T15:04:59;22.70;63.30
65462;DHT22;53236;43.666;18.444;2023-10-09T15:07:24;22.60;61.70
65462;DHT22;53236;43.666;18.444;2023-10-09T15:09:50;22.40;63.40
65462;DHT22;53236;43.666;18.444;2023-10-09T15:12:16;22.20;64.60
65462;DHT22;53236;43.666;18.444;2023-10-09T15:14:42;22.10;64.30
65462;DHT22;53236;43.666;18.444;2023-10-09T15:17:10;22.00;64.20
65462;DHT22;53236;43.666;18.444;2023-10-09T15:19:36;21.80;64.50
65462;DHT22;53236;43.666;18.444;2023-10-09T15:22:02;21.70;64.40
65462;DHT22;53236;43.666;18.444;2023-10-09T15:24:34;21.70;64.30
65462;DHT22;53236;43.666;18.444;2023-10-09T15:26:59;21.50;64.30
65462;DHT22;53236;43.666;18.444;2023-10-09T15:29:27;21.50;65.80
65462;DHT22;53236;43.666;18.444;2023-10-09T15:32:01;21.30;67.10
65462;DHT22;53236;43.666;18.444;2023-10-09T15:34:35;21.20;67.60
65462;DHT22;53236;43.666;18.444;2023-10-09T15:37:01;21.10;65.90
65462;DHT22;53236;43.666;18.444;2023-10-09T15:39:29;21.10;66.20
65462;DHT22;53236;43.666;18.444;2023-10-09T15:41:56;20.90;70.10
65462;DHT22;53236;43.666;18.444;2023-10-09T15:44:22;20.70;69.50
65462;DHT22;53236;43.666;18.444;2023-10-09T15:46:51;20.60;67.60
65462;DHT22;53236;43.666;18.444;2023-10-09T15:49:22;20.60;69.60
65462;DHT22;53236;43.666;18.444;2023-10-09T15:51:48;20.40;69.70
65462;DHT22;53236;43.666;18.444;2023-10-09T15:54:14;20.20;70.70
65462;DHT22;53236;43.666;18.444;2023-10-09T15:56:45;20.00;71.50
65462;DHT22;53236;43.666;18.444;2023-10-09T15:59:11;19.80;73.20
65462;DHT22;53236;43.666;18.444;2023-10-09T16:01:37;19.70;73.60
65462;DHT22;53236;43.666;18.444;2023-10-09T16:04:09;19.50;75.00
65462;DHT22;53236;43.666;18.444;2023-10-09T16:06:36;19.30;75.60
65462;DHT22;53236;43.666;18.444;2023-10-09T16:09:07;19.20;77.90
65462;DHT22;53236;43.666;18.444;2023-10-09T16:11:47;19.00;79.50
65462;DHT22;53236;43.666;18.444;2023-10-09T16:14:13;18.80;82.30
65462;DHT22;53236;43.666;18.444;2023-10-09T16:16:41;18.70;88.30
65462;DHT22;53236;43.666;18.444;2023-10-09T16:19:08;18.50;92.00
65462;DHT22;53236;43.666;18.444;2023-10-09T16:21:35;18.40;96.20
65462;DHT22;53236;43.666;18.444;2023-10-09T16:24:01;18.30;99.90
65462;DHT22;53236;43.666;18.444;2023-10-09T16:26:27;18.00;99.90
65462;DHT22;53236;43.666;18.444;2023-10-09T16:28:54;17.80;99.90
65462;DHT22;53236;43.666;18.444;2023-10-09T16:31:20;17.70;99.90
65462;DHT22;53236;43.666;18.444;2023-10-09T16:33:46;17.60;99.90
65462;DHT22;53236;43.666;18.444;2023-10-09T16:36:13;17.40;99.90
65462;DHT22;53236;43.666;18.444;2023-10-09T16:38:39;17.30;99.90
65462;DHT22;53236;43.666;18.444;2023-10-09T16:41:06;17.10;99.90
65462;DHT22;53236;43.666;18.444;2023-10-09T16:43:35;17.10;99.90
65462;DHT22;53236;43.666;18.444;2023-10-09T16:46:03;17.00;99.90
65462;DHT22;53236;43.666;18.444;2023-10-09T16:48:39;16.90;99.90
65462;DHT22;53236;43.666;18.444;2023-10-09T16:51:08;16.80;99.90
65462;DHT22;53236;43.666;18.444;2023-10-09T16:53:38;16.60;99.90
65462;DHT22;53236;43.666;18.444;2023-10-09T16:56:08;16.60;99.90